createdAt,value
2023-03-21T00:00:29.628Z,137.40
2023-03-21T00:05:57.417Z,134.60
2023-03-21T00:11:06.754Z,123.20
2023-03-21T00:16:23.348Z,136.30
2023-03-21T00:21:49.118Z,116.30
2023-03-21T00:27:10.690Z,129.90
2023-03-21T00:32:27.364Z,120.10
2023-03-21T00:37:35.984Z,117.80
2023-03-21T00:42:43.694Z,109.40
2023-03-21T00:47:51.641Z,118.00
2023-03-21T00:52:59.718Z,132.50
2023-03-21T00:58:08.372Z,124.50
2023-03-21T01:14:37.060Z,103.60
2023-03-21T01:19:51.482Z,102.50
2023-03-21T01:25:12.168Z,89.60
2023-03-21T01:30:31.222Z,95.80
2023-03-21T01:35:49.177Z,101.20
2023-03-21T01:41:06.188Z,94.80
2023-03-21T01:46:47.781Z,75.50
2023-03-21T01:52:10.176Z,82.50
2023-03-21T01:57:42.369Z,93.10
2023-03-21T02:02:58.142Z,92.00
2023-03-21T02:08:10.873Z,101.80
2023-03-21T02:13:18.541Z,106.80
2023-03-21T02:18:33.484Z,111.10
2023-03-21T02:24:08.206Z,111.80
2023-03-21T02:29:32.967Z,100.00
2023-03-21T02:34:58.765Z,106.60
2023-03-21T02:40:22.050Z,104.10
2023-03-21T02:45:37.388Z,114.00
2023-03-21T02:50:49.712Z,102.80
2023-03-21T02:55:58.521Z,123.50
2023-03-21T03:01:09.996Z,117.30
2023-03-21T03:06:23.216Z,112.30
2023-03-21T03:11:33.906Z,110.40
2023-03-21T03:16:47.319Z,99.00
2023-03-21T03:22:01.283Z,92.00
2023-03-21T03:27:13.698Z,80.60
2023-03-21T03:32:28.224Z,106.40
2023-03-21T03:37:38.100Z,104.10
2023-03-21T03:42:51.010Z,105.30
2023-03-21T03:48:06.737Z,83.20
2023-03-21T03:53:23.398Z,106.50
2023-03-21T03:58:44.610Z,118.60
2023-03-21T04:04:06.796Z,122.30
2023-03-21T04:09:25.108Z,119.80
2023-03-21T04:14:44.414Z,129.40
2023-03-21T04:19:57.757Z,128.40
2023-03-21T04:25:13.036Z,124.30
2023-03-21T04:30:21.068Z,112.10
2023-03-21T04:35:28.986Z,78.80
2023-03-21T04:40:36.814Z,113.50
2023-03-21T04:45:44.614Z,104.40
2023-03-21T04:50:52.122Z,121.80
2023-03-21T04:56:00.858Z,122.40
2023-03-21T05:01:09.404Z,118.20
2023-03-21T05:06:17.616Z,111.90
2023-03-21T05:11:25.157Z,112.30
2023-03-21T05:16:33.226Z,107.90
2023-03-21T05:21:42.922Z,111.80
2023-03-21T05:26:52.604Z,105.50
2023-03-21T05:32:01.330Z,103.60
2023-03-21T05:37:08.792Z,94.20
2023-03-21T05:42:16.510Z,83.70
2023-03-21T05:47:23.929Z,92.10
2023-03-21T05:52:31.754Z,98.10
2023-03-21T05:57:41.286Z,100.70
2023-03-21T06:02:48.855Z,112.10
2023-03-21T06:07:57.111Z,98.90
2023-03-21T06:13:06.881Z,96.70
2023-03-21T06:18:14.452Z,78.50
2023-03-21T06:23:23.129Z,86.70
2023-03-21T06:28:31.463Z,72.20
2023-03-21T06:33:39.579Z,58.90
2023-03-21T06:38:49.131Z,68.00
2023-03-21T06:43:56.630Z,68.70
2023-03-21T06:49:04.341Z,62.40
2023-03-21T06:54:12.798Z,52.60
2023-03-21T06:59:20.618Z,46.00
2023-03-21T07:04:28.708Z,46.70
2023-03-21T07:09:37.450Z,35.10
2023-03-21T07:14:45.162Z,46.60
2023-03-21T07:19:52.883Z,37.80
2023-03-21T07:25:05.387Z,41.60
2023-03-21T07:30:16.893Z,31.70
2023-03-21T07:35:24.813Z,37.90
2023-03-21T07:40:32.520Z,39.00
2023-03-21T07:45:41.048Z,37.30
2023-03-21T07:50:50.612Z,34.00
2023-03-21T07:55:58.789Z,32.90
2023-03-21T08:01:06.868Z,103.20
2023-03-21T08:06:15.646Z,29.40
2023-03-21T08:11:24.354Z,24.70
2023-03-21T08:16:32.095Z,27.40
2023-03-21T08:21:41.123Z,29.40
2023-03-21T08:26:49.432Z,36.40
2023-03-21T08:31:58.402Z,30.00
2023-03-21T08:37:05.960Z,33.30
2023-03-21T08:42:14.009Z,47.50
2023-03-21T08:47:22.769Z,51.40
2023-03-21T08:52:31.350Z,48.10
2023-03-21T08:57:39.568Z,61.90
2023-03-21T09:02:49.729Z,35.60
2023-03-21T09:07:57.946Z,55.30
2023-03-21T09:13:06.632Z,47.20
2023-03-21T09:18:15.345Z,47.40
2023-03-21T09:23:24.708Z,42.10
2023-03-21T09:28:32.403Z,37.70
2023-03-21T09:33:41.568Z,41.60
2023-03-21T09:38:51.298Z,40.80
2023-03-21T09:44:19.232Z,42.90
2023-03-21T09:49:31.796Z,31.90
2023-03-21T09:54:44.945Z,42.40
2023-03-21T09:59:55.230Z,38.80
2023-03-21T10:05:09.548Z,19.60
2023-03-21T10:10:23.968Z,39.20
2023-03-21T10:15:32.202Z,30.90
2023-03-21T10:20:43.580Z,32.00
2023-03-21T10:25:55.198Z,29.70
2023-03-21T10:31:07.764Z,34.30
2023-03-21T10:36:19.740Z,40.80
2023-03-21T10:41:27.568Z,34.70
2023-03-21T10:46:36.677Z,39.90
2023-03-21T10:51:49.034Z,50.50
2023-03-21T10:57:02.876Z,51.30
2023-03-21T11:02:21.750Z,56.30
2023-03-21T11:07:32.409Z,40.80
2023-03-21T11:12:42.906Z,50.20
2023-03-21T11:17:51.330Z,58.90
2023-03-21T11:22:59.368Z,54.60
2023-03-21T11:28:15.793Z,43.90
2023-03-21T11:33:28.162Z,46.70
2023-03-21T11:38:40.511Z,57.40
2023-03-21T11:43:54.554Z,51.20
2023-03-21T11:49:03.188Z,165.20
2023-03-21T11:54:19.763Z,60.80
2023-03-21T11:59:40.174Z,69.20
2023-03-21T12:04:54.662Z,57.20
2023-03-21T12:10:20.733Z,116.70
2023-03-21T12:15:37.541Z,83.60
2023-03-21T12:20:51.926Z,70.70
2023-03-21T12:26:07.197Z,67.40
2023-03-21T12:31:26.967Z,69.00
2023-03-21T12:37:00.895Z,64.70
2023-03-21T12:42:25.851Z,63.70
2023-03-21T12:47:35.943Z,97.80
2023-03-21T12:52:46.485Z,61.20
2023-03-21T12:58:00.142Z,62.70
2023-03-21T13:03:13.995Z,60.70
2023-03-21T13:08:27.854Z,71.90
2023-03-21T13:13:40.316Z,61.50
2023-03-21T13:19:02.123Z,60.10
2023-03-21T13:24:25.964Z,70.60
2023-03-21T13:29:37.206Z,68.30
2023-03-21T13:34:45.333Z,64.60
2023-03-21T13:39:53.447Z,54.20
2023-03-21T13:45:04.076Z,106.20
2023-03-21T13:50:35.461Z,77.70
2023-03-21T13:55:46.762Z,58.40
2023-03-21T14:01:14.360Z,42.00
2023-03-21T14:06:22.848Z,61.10
2023-03-21T14:11:34.811Z,58.30
2023-03-21T14:16:45.693Z,47.70
2023-03-21T14:21:55.979Z,62.20
2023-03-21T14:27:05.165Z,69.60
2023-03-21T14:32:24.960Z,45.10
2023-03-21T14:37:40.049Z,49.10
2023-03-21T14:42:52.880Z,48.10
2023-03-21T14:48:02.796Z,74.60
2023-03-21T14:53:13.445Z,41.70
2023-03-21T14:58:21.142Z,54.90
2023-03-21T15:03:28.937Z,46.50
2023-03-21T15:08:36.759Z,53.80
2023-03-21T15:13:50.466Z,92.80
2023-03-21T15:18:58.781Z,68.20
2023-03-21T15:24:15.200Z,48.30
2023-03-21T15:29:23.434Z,41.40
2023-03-21T15:34:32.882Z,43.50
2023-03-21T15:39:40.789Z,69.30
2023-03-21T15:44:53.483Z,40.70
2023-03-21T15:50:02.810Z,42.60
2023-03-21T15:55:26.777Z,40.40
2023-03-21T16:00:41.163Z,37.70
2023-03-21T16:06:06.072Z,45.30
2023-03-21T16:11:19.956Z,42.80
2023-03-21T16:16:30.559Z,42.20
2023-03-21T16:21:39.762Z,47.30
2023-03-21T16:26:51.157Z,51.00
2023-03-21T16:31:59.086Z,46.40
2023-03-21T16:37:06.897Z,49.20
2023-03-21T16:42:15.697Z,42.50
2023-03-21T16:47:25.151Z,50.30
2023-03-21T16:52:33.713Z,46.30
2023-03-21T16:57:42.556Z,43.70
2023-03-21T17:02:51.897Z,49.20
2023-03-21T17:08:02.573Z,41.20
2023-03-21T17:13:11.294Z,45.70
2023-03-21T17:18:19.965Z,52.00
2023-03-21T17:23:28.317Z,43.40
2023-03-21T17:28:36.907Z,45.50
2023-03-21T17:33:45.408Z,47.70
2023-03-21T17:38:53.234Z,39.10
2023-03-21T17:44:01.058Z,46.90
2023-03-21T17:49:10.290Z,54.90
2023-03-21T17:54:17.727Z,53.30
2023-03-21T17:59:25.833Z,64.50
2023-03-21T18:04:33.617Z,57.00
2023-03-21T18:09:41.343Z,51.90
2023-03-21T18:14:48.736Z,53.60
2023-03-21T18:19:57.531Z,60.70
2023-03-21T18:25:09.455Z,63.60
2023-03-21T18:30:53.147Z,54.30
2023-03-21T18:35:48.618Z,67.30
2023-03-21T18:40:56.641Z,53.00
2023-03-21T18:46:05.127Z,59.30
2023-03-21T18:51:13.162Z,68.10
2023-03-21T18:57:27.338Z,78.00
2023-03-21T19:01:50.371Z,83.90
2023-03-21T19:06:58.923Z,76.80
2023-03-21T19:12:07.442Z,79.90
2023-03-21T19:18:11.358Z,81.10
2023-03-21T19:22:44.472Z,83.30
2023-03-21T19:27:52.352Z,83.00
2023-03-21T19:33:00.312Z,89.10
2023-03-21T19:38:08.553Z,89.40
2023-03-21T19:43:33.044Z,89.20
2023-03-21T19:48:44.062Z,89.10
2023-03-21T19:53:52.696Z,79.50
2023-03-21T19:59:02.029Z,88.90
2023-03-21T20:04:09.531Z,92.50
2023-03-21T20:09:50.382Z,94.60
2023-03-21T20:14:49.081Z,97.50
2023-03-21T20:19:58.269Z,90.90
2023-03-21T20:25:09.049Z,81.70
2023-03-21T20:30:19.899Z,80.10
2023-03-21T20:36:00.688Z,99.00
2023-03-21T20:49:37.466Z,84.50
2023-03-21T20:54:45.833Z,89.00
2023-03-21T20:59:53.379Z,100.10
2023-03-21T21:10:28.762Z,135.00
2023-03-21T21:15:37.711Z,104.40
2023-03-21T21:20:45.549Z,107.90
2023-03-21T21:25:55.775Z,105.30
2023-03-21T21:31:20.943Z,103.30
2023-03-21T21:36:28.686Z,110.50
2023-03-21T21:41:37.005Z,100.70
2023-03-21T21:46:45.331Z,112.30
2023-03-21T21:51:52.829Z,95.30
2023-03-21T21:57:00.495Z,109.30
2023-03-21T22:02:07.830Z,101.40
2023-03-21T22:07:18.165Z,106.60
2023-03-21T22:12:29.184Z,114.50
2023-03-21T22:17:38.906Z,108.40
2023-03-21T22:22:46.642Z,111.30
2023-03-21T22:27:54.562Z,119.60
2023-03-21T22:33:09.606Z,111.60
2023-03-21T22:38:24.610Z,118.90
2023-03-21T22:43:34.490Z,118.40
2023-03-21T22:48:42.521Z,123.90
2023-03-21T22:53:50.220Z,101.30
2023-03-21T22:59:00.554Z,120.60
2023-03-21T23:04:09.047Z,113.70
2023-03-21T23:09:17.761Z,131.90
2023-03-21T23:14:25.889Z,131.30
2023-03-21T23:19:33.605Z,117.00
2023-03-21T23:24:41.873Z,117.10
2023-03-21T23:29:51.892Z,104.50
2023-03-21T23:34:59.621Z,113.70
2023-03-21T23:40:09.423Z,118.30
2023-03-21T23:45:17.291Z,125.10
2023-03-21T23:50:26.036Z,130.20
2023-03-21T23:55:34.383Z,113.30
